createdAt,value
2018-03-02T00:00:54.118Z,77.40
2018-03-02T00:03:21.652Z,77.30
2018-03-02T00:05:49.970Z,77.50
2018-03-02T00:08:17.529Z,77.40
2018-03-02T00:10:45.093Z,77.40
2018-03-02T00:13:12.634Z,77.40
2018-03-02T00:15:40.166Z,77.30
2018-03-02T00:18:08.492Z,77.50
2018-03-02T00:20:36.016Z,77.50
2018-03-02T00:23:03.576Z,77.70
2018-03-02T00:25:31.870Z,77.70
2018-03-02T00:27:59.411Z,77.70
2018-03-02T00:30:27.696Z,77.80
2018-03-02T00:32:55.252Z,77.80
2018-03-02T00:35:22.781Z,77.90
2018-03-02T00:37:50.327Z,77.60
2018-03-02T00:40:17.857Z,77.80
2018-03-02T00:42:45.402Z,77.80
2018-03-02T00:45:12.986Z,77.80
2018-03-02T00:47:40.533Z,77.80
2018-03-02T00:50:08.095Z,77.80
2018-03-02T00:52:35.616Z,78.00
2018-03-02T00:55:03.930Z,77.90
2018-03-02T00:57:31.481Z,77.90
2018-03-02T00:59:59.031Z,77.90
2018-03-02T01:02:26.560Z,78.20
2018-03-02T01:04:54.865Z,78.80
2018-03-02T01:07:22.406Z,78.80
2018-03-02T01:09:50.693Z,78.80
2018-03-02T01:12:18.266Z,78.90
2018-03-02T01:14:45.803Z,79.00
2018-03-02T01:17:14.119Z,79.10
2018-03-02T01:19:41.635Z,79.10
2018-03-02T01:22:09.943Z,79.70
2018-03-02T01:24:37.502Z,79.70
2018-03-02T01:27:05.081Z,79.60
2018-03-02T01:29:32.621Z,80.10
2018-03-02T01:32:00.158Z,80.10
2018-03-02T01:34:28.479Z,80.20
2018-03-02T01:36:56.031Z,80.20
2018-03-02T01:39:23.565Z,80.40
2018-03-02T01:41:51.100Z,80.20
2018-03-02T01:44:19.431Z,80.80
2018-03-02T01:46:46.957Z,80.70
2018-03-02T01:49:14.498Z,80.70
2018-03-02T01:51:49.511Z,80.10
2018-03-02T01:54:17.086Z,80.10
2018-03-02T01:56:45.386Z,80.50
2018-03-02T01:59:12.910Z,80.50
2018-03-02T02:01:40.472Z,80.90
2018-03-02T02:04:07.999Z,80.80
2018-03-02T02:06:35.547Z,81.00
2018-03-02T02:09:03.064Z,81.40
2018-03-02T02:11:31.382Z,81.10
2018-03-02T02:13:58.900Z,81.10
2018-03-02T02:16:27.239Z,80.90
2018-03-02T02:18:54.791Z,80.80
2018-03-02T02:21:23.075Z,80.70
2018-03-02T02:23:52.418Z,80.70
2018-03-02T02:26:20.760Z,81.40
2018-03-02T02:28:48.320Z,81.50
2018-03-02T02:31:15.856Z,81.70
2018-03-02T02:33:43.392Z,82.00
2018-03-02T02:36:10.911Z,81.90
2018-03-02T02:38:38.451Z,81.90
2018-03-02T02:41:05.982Z,82.10
2018-03-02T02:43:33.522Z,82.00
2018-03-02T02:46:01.065Z,81.90
2018-03-02T02:48:29.357Z,82.10
2018-03-02T02:50:56.910Z,82.10
2018-03-02T02:53:24.459Z,82.10
2018-03-02T02:55:52.765Z,82.30
2018-03-02T02:58:20.288Z,82.30
2018-03-02T03:00:48.609Z,82.70
2018-03-02T03:03:16.152Z,82.70
2018-03-02T03:05:43.707Z,82.50
2018-03-02T03:08:11.235Z,82.70
2018-03-02T03:10:39.520Z,82.60
2018-03-02T03:13:07.830Z,82.80
2018-03-02T03:15:35.388Z,82.80
2018-03-02T03:18:02.958Z,82.80
2018-03-02T03:20:30.562Z,82.80
2018-03-02T03:22:58.133Z,82.90
2018-03-02T03:25:26.451Z,82.80
2018-03-02T03:27:54.023Z,82.80
2018-03-02T03:30:21.553Z,83.00
2018-03-02T03:32:49.084Z,82.60
2018-03-02T03:35:16.628Z,83.10
2018-03-02T03:37:44.155Z,83.50
2018-03-02T03:40:11.727Z,83.70
2018-03-02T03:42:40.060Z,83.70
2018-03-02T03:45:07.599Z,83.70
2018-03-02T03:47:35.937Z,83.70
2018-03-02T03:50:03.492Z,83.80
2018-03-02T03:52:31.062Z,83.70
2018-03-02T03:54:58.618Z,83.70
2018-03-02T03:57:26.152Z,83.50
2018-03-02T03:59:53.718Z,83.70
2018-03-02T04:02:21.286Z,83.60
2018-03-02T04:04:48.822Z,83.70
2018-03-02T04:07:16.362Z,84.10
2018-03-02T04:09:44.682Z,84.10
2018-03-02T04:12:12.250Z,84.10
2018-03-02T04:14:39.791Z,84.10
2018-03-02T04:17:07.338Z,84.30
2018-03-02T04:19:34.918Z,84.20
2018-03-02T04:22:02.447Z,84.10
2018-03-02T04:24:30.769Z,84.30
2018-03-02T04:26:58.312Z,84.40
2018-03-02T04:29:25.855Z,84.30
2018-03-02T04:31:53.455Z,84.40
2018-03-02T04:34:21.013Z,84.50
2018-03-02T04:36:48.572Z,84.60
2018-03-02T04:39:16.150Z,84.80
2018-03-02T04:41:43.715Z,84.90
2018-03-02T04:44:11.251Z,85.40
2018-03-02T04:46:38.815Z,84.50
2018-03-02T04:49:06.348Z,84.60
2018-03-02T04:51:33.886Z,84.60
2018-03-02T04:54:01.456Z,84.60
2018-03-02T04:56:29.012Z,84.40
2018-03-02T04:58:56.545Z,83.70
2018-03-02T05:01:24.883Z,83.80
2018-03-02T05:03:52.417Z,83.80
2018-03-02T05:06:19.965Z,83.90
2018-03-02T05:08:47.539Z,83.80
2018-03-02T05:11:15.059Z,83.80
2018-03-02T05:13:43.343Z,83.60
2018-03-02T05:16:11.664Z,83.40
2018-03-02T05:18:39.198Z,83.40
2018-03-02T05:21:06.824Z,83.50
2018-03-02T05:23:34.347Z,83.40
2018-03-02T05:26:01.903Z,83.40
2018-03-02T05:28:29.448Z,83.00
2018-03-02T05:30:57.012Z,83.00
2018-03-02T05:33:24.550Z,83.40
2018-03-02T05:35:52.102Z,82.90
2018-03-02T05:38:19.670Z,82.80
2018-03-02T05:40:47.191Z,83.00
2018-03-02T05:43:15.499Z,83.70
2018-03-02T05:45:43.058Z,83.70
2018-03-02T05:48:10.600Z,83.70
2018-03-02T05:50:38.916Z,84.00
2018-03-02T05:53:06.458Z,84.00
2018-03-02T05:55:33.990Z,83.90
2018-03-02T05:58:02.319Z,83.90
2018-03-02T06:00:29.880Z,83.90
2018-03-02T06:02:57.398Z,84.30
2018-03-02T06:05:24.942Z,84.40
2018-03-02T06:07:53.287Z,84.70
2018-03-02T06:10:20.835Z,84.10
2018-03-02T06:12:48.385Z,84.20
2018-03-02T06:15:15.961Z,84.00
2018-03-02T06:17:43.506Z,84.10
2018-03-02T06:20:11.026Z,84.10
2018-03-02T06:22:39.405Z,84.70
2018-03-02T06:25:06.937Z,84.70
2018-03-02T06:27:34.479Z,84.50
2018-03-02T06:30:02.043Z,84.20
2018-03-02T06:32:29.554Z,83.60
2018-03-02T06:34:57.083Z,83.50
2018-03-02T06:37:24.638Z,83.80
2018-03-02T06:39:52.175Z,82.80
2018-03-02T06:42:19.699Z,83.00
2018-03-02T06:44:47.243Z,81.70
2018-03-02T06:47:15.565Z,82.10
2018-03-02T06:49:43.078Z,82.10
2018-03-02T06:52:11.409Z,81.30
2018-03-02T06:54:38.943Z,81.40
2018-03-02T06:57:06.508Z,80.60
2018-03-02T06:59:34.087Z,80.10
2018-03-02T07:02:01.644Z,80.20
2018-03-02T07:04:29.156Z,80.00
2018-03-02T07:06:57.470Z,79.40
2018-03-02T07:09:25.007Z,79.40
2018-03-02T07:11:52.525Z,79.10
2018-03-02T07:14:20.082Z,80.30
2018-03-02T07:16:47.614Z,80.00
2018-03-02T07:19:15.161Z,80.60
2018-03-02T07:21:42.724Z,80.30
2018-03-02T07:24:10.258Z,80.70
2018-03-02T07:26:37.780Z,80.60
2018-03-02T07:29:05.350Z,81.30
2018-03-02T07:31:33.660Z,81.20
2018-03-02T07:34:01.209Z,81.20
2018-03-02T07:36:28.774Z,80.60
2018-03-02T07:38:56.284Z,80.90
2018-03-02T07:41:23.797Z,81.80
2018-03-02T07:43:51.351Z,81.80
2018-03-02T07:46:19.906Z,81.80
2018-03-02T07:48:48.207Z,82.60
2018-03-02T07:51:15.775Z,82.60
2018-03-02T07:53:43.306Z,82.00
2018-03-02T07:56:11.607Z,81.90
2018-03-02T07:58:39.150Z,81.90
2018-03-02T08:01:06.696Z,81.70
2018-03-02T08:03:34.993Z,82.80
2018-03-02T08:06:02.544Z,82.60
2018-03-02T08:08:30.824Z,82.60
2018-03-02T08:10:58.361Z,82.60
2018-03-02T08:13:26.706Z,81.60
2018-03-02T08:15:54.242Z,81.50
2018-03-02T08:18:21.748Z,81.60
2018-03-02T08:20:49.311Z,81.90
2018-03-02T08:23:16.844Z,82.80
2018-03-02T08:25:44.374Z,82.20
2018-03-02T08:28:11.923Z,80.80
2018-03-02T08:30:39.465Z,80.60
2018-03-02T08:33:07.743Z,79.60
2018-03-02T08:35:36.060Z,79.50
2018-03-02T08:38:03.600Z,79.40
2018-03-02T08:40:31.127Z,79.70
2018-03-02T08:42:59.441Z,79.60
2018-03-02T08:45:26.971Z,79.50
2018-03-02T08:47:55.262Z,77.10
2018-03-02T08:50:22.828Z,77.10
2018-03-02T08:52:50.363Z,76.90
2018-03-02T08:55:18.653Z,76.30
2018-03-02T08:57:46.205Z,76.30
2018-03-02T09:00:13.777Z,75.90
2018-03-02T09:02:41.326Z,75.80
2018-03-02T09:05:09.673Z,73.90
2018-03-02T09:07:37.192Z,74.00
2018-03-02T09:10:04.726Z,73.90
2018-03-02T09:12:33.039Z,71.40
2018-03-02T09:15:00.576Z,71.30
2018-03-02T09:17:28.103Z,71.30
2018-03-02T09:19:56.440Z,68.20
2018-03-02T09:22:23.985Z,68.80
2018-03-02T09:24:51.523Z,68.40
2018-03-02T09:27:19.084Z,64.90
2018-03-02T09:29:46.614Z,66.50
2018-03-02T09:32:14.914Z,65.50
2018-03-02T09:34:42.466Z,65.50
2018-03-02T09:37:10.743Z,64.80
2018-03-02T09:39:39.035Z,63.50
2018-03-02T09:42:06.577Z,63.50
2018-03-02T09:44:34.863Z,61.10
2018-03-02T09:47:02.390Z,61.00
2018-03-02T09:49:29.957Z,59.60
2018-03-02T09:51:58.271Z,62.10
2018-03-02T09:54:25.806Z,62.10
2018-03-02T09:56:54.108Z,61.50
2018-03-02T09:59:21.673Z,61.30
2018-03-02T10:01:49.956Z,59.50
2018-03-02T10:04:17.516Z,59.50
2018-03-02T10:06:45.075Z,58.30
2018-03-02T10:09:12.600Z,58.70
2018-03-02T10:11:40.936Z,60.20
2018-03-02T10:14:08.513Z,60.20
2018-03-02T10:16:36.068Z,58.60
2018-03-02T10:19:03.610Z,57.70
2018-03-02T10:21:31.144Z,57.80
2018-03-02T10:23:58.687Z,58.50
2018-03-02T10:26:26.271Z,56.10
2018-03-02T10:28:53.978Z,56.00
2018-03-02T10:31:22.280Z,58.30
2018-03-02T10:33:49.816Z,58.10
2018-03-02T10:36:18.115Z,58.70
2018-03-02T10:38:45.656Z,58.70
2018-03-02T10:41:13.978Z,61.60
2018-03-02T10:43:41.581Z,61.40
2018-03-02T10:46:09.114Z,59.70
2018-03-02T10:48:36.670Z,57.90
2018-03-02T10:51:04.201Z,58.30
2018-03-02T10:53:31.736Z,56.00
2018-03-02T10:56:00.054Z,56.60
2018-03-02T10:58:27.596Z,56.60
2018-03-02T11:00:55.134Z,57.10
2018-03-02T11:03:23.479Z,57.60
2018-03-02T11:05:51.032Z,57.60
2018-03-02T11:08:18.570Z,57.00
2018-03-02T11:10:46.139Z,57.50
2018-03-02T11:13:13.666Z,57.40
2018-03-02T11:15:41.211Z,58.40
2018-03-02T11:18:09.536Z,55.70
2018-03-02T11:20:37.059Z,55.80
2018-03-02T11:23:04.606Z,54.40
2018-03-02T11:25:32.916Z,57.10
2018-03-02T11:28:00.455Z,57.10
2018-03-02T11:30:27.996Z,55.50
2018-03-02T11:32:56.315Z,56.20
2018-03-02T11:35:23.837Z,55.60
2018-03-02T11:37:52.131Z,56.50
2018-03-02T11:40:19.697Z,56.50
2018-03-02T11:42:47.215Z,56.60
2018-03-02T11:45:16.236Z,56.20
2018-03-02T11:47:43.803Z,56.20
2018-03-02T11:50:11.353Z,54.20
2018-03-02T11:52:38.894Z,54.80
2018-03-02T11:55:07.260Z,57.20
2018-03-02T11:57:34.795Z,57.20
2018-03-02T12:00:02.324Z,57.50
2018-03-02T12:02:29.865Z,57.60
2018-03-02T12:04:57.387Z,57.70
2018-03-02T12:07:24.914Z,57.00
2018-03-02T12:09:52.471Z,57.20
2018-03-02T12:12:20.017Z,56.00
2018-03-02T12:14:47.542Z,55.10
2018-03-02T12:17:15.888Z,52.80
2018-03-02T12:19:43.438Z,52.80
2018-03-02T12:22:11.730Z,54.10
2018-03-02T12:24:39.273Z,54.10
2018-03-02T12:27:06.813Z,54.10
2018-03-02T12:29:34.358Z,54.50
2018-03-02T12:32:01.907Z,54.60
2018-03-02T12:34:30.191Z,53.90
2018-03-02T12:36:57.722Z,53.80
2018-03-02T12:39:26.050Z,55.40
2018-03-02T12:41:53.580Z,55.30
2018-03-02T12:44:21.129Z,55.60
2018-03-02T12:46:49.454Z,55.10
2018-03-02T12:49:17.015Z,55.00
2018-03-02T12:51:44.545Z,53.80
2018-03-02T12:54:12.108Z,53.70
2018-03-02T12:56:39.907Z,52.70
2018-03-02T12:59:07.450Z,54.10
2018-03-02T13:01:35.033Z,55.30
2018-03-02T13:04:02.565Z,56.30
2018-03-02T13:06:30.083Z,56.30
2018-03-02T13:08:58.384Z,57.80
2018-03-02T13:11:25.898Z,57.80
2018-03-02T13:13:53.408Z,55.40
2018-03-02T13:16:20.960Z,55.40
2018-03-02T13:18:48.498Z,56.10
2018-03-02T13:21:16.786Z,54.20
2018-03-02T13:23:44.336Z,54.20
2018-03-02T13:26:24.303Z,55.50
2018-03-02T13:28:52.737Z,55.50
2018-03-02T13:31:20.242Z,53.10
2018-03-02T13:33:59.839Z,52.30
2018-03-02T13:36:27.360Z,51.50
2018-03-02T13:38:54.872Z,51.60
2018-03-02T13:41:35.182Z,51.30
2018-03-02T13:44:02.702Z,51.30
2018-03-02T13:46:31.003Z,50.30
2018-03-02T13:49:10.371Z,50.30
2018-03-02T13:51:37.925Z,50.90
2018-03-02T13:54:05.455Z,51.00
2018-03-02T13:56:44.752Z,52.90
2018-03-02T13:59:13.034Z,53.40
2018-03-02T14:01:41.328Z,52.10
2018-03-02T14:04:20.638Z,51.50
2018-03-02T14:06:48.160Z,51.30
2018-03-02T14:09:15.702Z,51.40
2018-03-02T14:11:43.245Z,51.20
2018-03-02T14:14:10.773Z,50.70
2018-03-02T14:16:38.307Z,50.50
2018-03-02T14:19:06.623Z,52.90
2018-03-02T14:21:34.931Z,53.40
2018-03-02T14:24:03.484Z,53.40
2018-03-02T14:26:31.094Z,53.10
2018-03-02T14:28:58.607Z,53.60
2018-03-02T14:31:26.996Z,53.50
2018-03-02T14:33:54.550Z,53.90
2018-03-02T14:36:22.094Z,54.60
2018-03-02T14:38:50.395Z,54.80
2018-03-02T14:41:17.943Z,54.70
2018-03-02T14:43:46.225Z,55.40
2018-03-02T14:46:13.769Z,55.40
2018-03-02T14:48:42.107Z,55.40
2018-03-02T14:51:09.626Z,55.30
2018-03-02T14:53:37.146Z,55.00
2018-03-02T14:56:04.712Z,55.60
2018-03-02T14:58:33.006Z,56.70
2018-03-02T15:01:01.281Z,56.40
2018-03-02T15:03:29.615Z,57.00
2018-03-02T15:05:57.124Z,57.00
2018-03-02T15:08:24.643Z,57.10
2018-03-02T15:10:52.188Z,57.70
2018-03-02T15:13:19.703Z,58.50
2018-03-02T15:15:47.243Z,58.20
2018-03-02T15:18:15.620Z,58.60
2018-03-02T15:20:43.898Z,58.40
2018-03-02T15:23:12.183Z,58.70
2018-03-02T15:25:40.508Z,58.60
2018-03-02T15:28:08.067Z,58.50
2018-03-02T15:30:35.562Z,59.10
2018-03-02T15:33:03.110Z,58.90
2018-03-02T15:35:30.630Z,59.20
2018-03-02T15:37:58.155Z,59.50
2018-03-02T15:40:26.476Z,60.50
2018-03-02T15:42:54.014Z,60.50
2018-03-02T15:45:21.547Z,61.00
2018-03-02T15:47:49.882Z,61.50
2018-03-02T15:50:17.413Z,61.50
2018-03-02T15:52:44.947Z,61.60
2018-03-02T15:55:13.299Z,61.80
2018-03-02T15:57:40.831Z,61.80
2018-03-02T16:00:08.355Z,62.70
2018-03-02T16:02:35.937Z,62.60
2018-03-02T16:05:03.468Z,62.60
2018-03-02T16:07:31.021Z,64.20
2018-03-02T16:09:58.570Z,65.00
2018-03-02T16:12:26.855Z,64.70
2018-03-02T16:14:55.139Z,65.90
2018-03-02T16:17:22.695Z,66.00
2018-03-02T16:19:50.223Z,63.80
2018-03-02T16:22:17.766Z,64.60
2018-03-02T16:24:45.315Z,64.30
2018-03-02T16:27:12.843Z,64.80
2018-03-02T16:29:40.363Z,64.70
2018-03-02T16:32:07.906Z,64.70
2018-03-02T16:34:35.449Z,64.70
2018-03-02T16:37:02.974Z,65.10
2018-03-02T16:39:30.518Z,65.30
2018-03-02T16:41:58.070Z,65.10
2018-03-02T16:44:26.376Z,65.60
2018-03-02T16:46:53.934Z,65.60
2018-03-02T16:49:21.477Z,66.50
2018-03-02T16:51:49.022Z,67.10
2018-03-02T16:54:17.378Z,68.10
2018-03-02T16:56:44.896Z,68.70
2018-03-02T16:59:12.437Z,67.70
2018-03-02T17:01:39.986Z,68.00
2018-03-02T17:04:08.286Z,68.40
2018-03-02T17:06:35.840Z,68.30
2018-03-02T17:09:03.404Z,68.90
2018-03-02T17:11:30.929Z,69.30
2018-03-02T17:13:59.253Z,70.10
2018-03-02T17:16:26.825Z,70.20
2018-03-02T17:18:54.343Z,69.90
2018-03-02T17:21:23.294Z,70.60
2018-03-02T17:23:50.860Z,70.70
2018-03-02T17:26:18.577Z,71.00
2018-03-02T17:31:13.042Z,73.30
2018-03-02T17:33:41.339Z,73.10
2018-03-02T17:36:08.883Z,73.10
2018-03-02T17:38:37.189Z,74.30
2018-03-02T17:41:06.605Z,74.30
2018-03-02T17:43:35.673Z,75.30
2018-03-02T17:46:03.237Z,75.70
2018-03-02T17:48:30.760Z,75.30
2018-03-02T17:50:58.871Z,76.20
2018-03-02T17:53:26.436Z,76.30
2018-03-02T17:55:53.963Z,76.00
2018-03-02T17:58:22.274Z,76.50
2018-03-02T18:00:49.846Z,76.50
2018-03-02T18:03:17.371Z,76.60
2018-03-02T18:05:45.728Z,77.50
2018-03-02T18:08:13.253Z,77.50
2018-03-02T18:10:40.804Z,78.00
2018-03-02T18:13:08.330Z,77.40
2018-03-02T18:15:36.636Z,76.30
2018-03-02T18:18:04.212Z,76.40
2018-03-02T18:20:31.769Z,78.00
2018-03-02T18:22:59.323Z,78.50
2018-03-02T18:25:26.859Z,78.30
2018-03-02T18:27:54.394Z,79.00
2018-03-02T18:30:22.696Z,79.90
2018-03-02T18:32:50.224Z,79.90
2018-03-02T18:35:18.538Z,80.60
2018-03-02T18:37:46.112Z,80.50
2018-03-02T18:40:13.638Z,81.10
2018-03-02T18:42:41.938Z,81.50
2018-03-02T18:45:09.497Z,81.40
2018-03-02T18:47:37.022Z,81.30
2018-03-02T18:50:05.329Z,82.50
2018-03-02T18:52:32.887Z,82.50
2018-03-02T18:55:00.412Z,81.80
2018-03-02T18:57:28.713Z,82.70
2018-03-02T18:59:56.259Z,82.70
2018-03-02T19:02:24.547Z,83.60
2018-03-02T19:04:52.095Z,83.60
2018-03-02T19:07:19.654Z,83.60
2018-03-02T19:09:47.973Z,84.50
2018-03-02T19:12:15.523Z,84.60
2018-03-02T19:14:43.680Z,85.60
2018-03-02T19:17:11.198Z,86.20
2018-03-02T19:19:38.745Z,86.10
2018-03-02T19:22:06.299Z,86.00
2018-03-02T19:24:33.822Z,86.50
2018-03-02T19:27:01.355Z,86.20
2018-03-02T19:29:29.685Z,86.20
2018-03-02T19:31:57.229Z,86.20
2018-03-02T19:34:24.748Z,86.00
2018-03-02T19:36:53.048Z,87.00
2018-03-02T19:39:20.574Z,87.00
2018-03-02T19:41:48.890Z,87.40
2018-03-02T19:44:16.440Z,87.40
2018-03-02T19:46:43.962Z,87.40
2018-03-02T19:49:12.265Z,87.40
2018-03-02T19:51:39.887Z,87.40
2018-03-02T19:54:07.415Z,87.40
2018-03-02T19:56:34.943Z,87.10
2018-03-02T19:59:03.249Z,87.40
2018-03-02T20:01:30.785Z,87.30
2018-03-02T20:03:58.304Z,87.30
2018-03-02T20:06:25.863Z,87.20
2018-03-02T20:08:53.421Z,87.30
2018-03-02T20:11:20.938Z,87.10
2018-03-02T20:13:48.497Z,87.40
2018-03-02T20:16:16.056Z,87.40
2018-03-02T20:18:43.591Z,87.10
2018-03-02T20:21:11.146Z,87.20
2018-03-02T20:23:39.456Z,87.60
2018-03-02T20:26:06.995Z,87.50
2018-03-02T20:28:34.562Z,87.00
2018-03-02T20:31:02.095Z,87.20
2018-03-02T20:33:30.398Z,87.20
2018-03-02T20:35:57.959Z,87.20
2018-03-02T20:38:25.497Z,87.30
2018-03-02T20:40:53.780Z,87.00
2018-03-02T20:43:21.346Z,87.00
2018-03-02T20:45:48.881Z,87.30
2018-03-02T20:48:17.180Z,87.20
2018-03-02T20:50:44.744Z,87.20
2018-03-02T20:53:12.272Z,87.50
2018-03-02T20:55:40.570Z,87.70
2018-03-02T20:58:08.945Z,88.80
2018-03-02T21:00:36.523Z,88.20
2018-03-02T21:03:04.102Z,88.00
2018-03-02T21:05:31.715Z,87.50
2018-03-02T21:08:00.073Z,88.00
2018-03-02T21:10:28.417Z,88.30
2018-03-02T21:12:56.260Z,88.30
2018-03-02T21:15:24.151Z,88.30
2018-03-02T21:17:53.168Z,88.50
2018-03-02T21:20:20.776Z,88.90
2018-03-02T21:22:48.392Z,88.80
2018-03-02T21:25:16.899Z,88.50
2018-03-02T21:27:45.275Z,88.60
2018-03-02T21:30:13.620Z,88.80
2018-03-02T21:32:41.213Z,88.80
2018-03-02T21:35:09.591Z,89.10
2018-03-02T21:37:37.943Z,89.00
2018-03-02T21:40:05.527Z,89.00
2018-03-02T21:42:33.961Z,88.50
2018-03-02T21:45:01.541Z,88.40
2018-03-02T21:47:29.125Z,87.90
2018-03-02T21:49:57.498Z,88.30
2018-03-02T21:52:25.077Z,88.30
2018-03-02T21:54:52.675Z,88.60
2018-03-02T21:57:20.277Z,88.30
2018-03-02T21:59:48.622Z,88.30
2018-03-02T22:02:16.202Z,88.30
2018-03-02T22:04:43.829Z,88.50
2018-03-02T22:07:11.413Z,89.00
2018-03-02T22:09:38.988Z,89.00
2018-03-02T22:12:06.582Z,88.80
2018-03-02T22:14:34.172Z,89.10
2018-03-02T22:17:01.782Z,89.30
2018-03-02T22:19:30.147Z,89.60
2018-03-02T22:21:57.736Z,89.60
2018-03-02T22:24:26.104Z,89.50
2018-03-02T22:26:53.719Z,89.50
2018-03-02T22:29:21.297Z,89.40
2018-03-02T22:31:48.878Z,89.40
2018-03-02T22:34:16.670Z,90.10
2018-03-02T22:36:44.250Z,89.90
2018-03-02T22:39:11.828Z,89.70
2018-03-02T22:41:39.438Z,89.90
2018-03-02T22:44:07.777Z,89.90
2018-03-02T22:46:35.365Z,89.90
2018-03-02T22:49:03.734Z,89.40
2018-03-02T22:51:31.319Z,89.50
2018-03-02T22:53:59.664Z,89.40
2018-03-02T22:56:27.275Z,89.30
2018-03-02T22:58:54.855Z,89.60
2018-03-02T23:01:22.451Z,90.00
2018-03-02T23:03:50.060Z,90.00
2018-03-02T23:06:17.642Z,89.90
2018-03-02T23:08:45.212Z,90.00
2018-03-02T23:11:12.816Z,89.80
2018-03-02T23:13:40.409Z,90.20
2018-03-02T23:16:07.989Z,90.00
2018-03-02T23:18:35.594Z,89.80
2018-03-02T23:21:03.938Z,90.10
2018-03-02T23:23:31.526Z,90.00
2018-03-02T23:25:59.893Z,90.10
2018-03-02T23:28:27.479Z,90.10
2018-03-02T23:30:55.060Z,90.10
2018-03-02T23:33:22.669Z,90.10
2018-03-02T23:35:50.249Z,90.10
2018-03-02T23:38:18.593Z,90.00
2018-03-02T23:40:46.206Z,90.00
2018-03-02T23:43:13.786Z,89.90
2018-03-02T23:45:41.367Z,90.30
2018-03-02T23:48:08.982Z,90.10
2018-03-02T23:50:36.570Z,90.00
2018-03-02T23:53:04.151Z,90.00
2018-03-02T23:55:31.771Z,90.10
2018-03-02T23:57:59.333Z,90.40
